Terminal Aerodrome Forecast
Issued by NWS

Home | Current Version | Previous Version | Text Only | Print | Product List | Glossary On
Versions: 1 2 3 4 5 6 7 8 9 10 11 12
854
FTUS45 KABQ 140530
TAFSAF
TAF
KSAF 140530Z 1406/1506 36009KT P6SM FEW250
     FM141800 28007KT P6SM SCT200
     FM142100 28011G17KT P6SM FEW250
     FM150200 32007KT P6SM FEW250=

USA.gov is the U.S. government's official web portal to all federal, state and local government web resources and services.